Urb Caldas, Puerto Rico
Current Conditions -  °F | °C
As of 6:56 AM on Thursday 27 Nov 2014 (Local Time) from TJSJ Reporting Station
Scattered Clouds Scattered Clouds  
Wind Chill: 74°   Ceiling: Unl
Heat Index: 74°   Visibility: 10mi
Dew Point: 70°   Wind: 0mph
Humidity: 87%   Direction: NA
Pressure: 30"   Gusts: NA
Location:  18.3754°N, 66.0577°W
Report Text: TJSJ 271056Z 00000KT 10SM FEW037 SCT070 23/21 A3000 RMK AO2 SLP156 T02330211
Loading
Personal Weather Stations






























Interactive Weather Map New forecast layout! Learn more

10-Day Weather Forecast

Advertisements
Track Severe Weather on mobile